sensor_id;sensor_type;location;lat;lon;timestamp;pressure;altitude;pressure_sealevel;temperature;humidity
21357;BME280;10836;53.068;18.234;2023-09-19T00:00:47;100107.16;;;19.54;100.00
21357;BME280;10836;53.068;18.234;2023-09-19T00:03:35;100106.00;;;19.43;100.00
21357;BME280;10836;53.068;18.234;2023-09-19T00:06:05;100104.72;;;19.53;100.00
21357;BME280;10836;53.068;18.234;2023-09-19T00:08:35;100114.88;;;19.49;100.00
21357;BME280;10836;53.068;18.234;2023-09-19T00:11:02;100107.97;;;19.55;100.00
21357;BME280;10836;53.068;18.234;2023-09-19T00:13:33;100118.34;;;19.58;100.00
21357;BME280;10836;53.068;18.234;2023-09-19T00:16:10;100110.94;;;19.50;100.00
21357;BME280;10836;53.068;18.234;2023-09-19T00:18:41;100114.66;;;19.54;100.00
21357;BME280;10836;53.068;18.234;2023-09-19T00:21:09;100121.69;;;19.51;100.00
21357;BME280;10836;53.068;18.234;2023-09-19T00:23:37;100118.13;;;19.51;100.00
21357;BME280;10836;53.068;18.234;2023-09-19T00:26:05;100121.81;;;19.55;100.00
21357;BME280;10836;53.068;18.234;2023-09-19T00:28:32;100127.00;;;19.56;100.00
21357;BME280;10836;53.068;18.234;2023-09-19T00:30:59;100122.72;;;19.47;100.00
21357;BME280;10836;53.068;18.234;2023-09-19T00:33:30;100127.56;;;19.62;100.00
21357;BME280;10836;53.068;18.234;2023-09-19T00:35:58;100124.69;;;19.58;100.00
21357;BME280;10836;53.068;18.234;2023-09-19T00:38:25;100121.34;;;19.53;100.00
21357;BME280;10836;53.068;18.234;2023-09-19T00:40:54;100126.19;;;19.56;100.00
21357;BME280;10836;53.068;18.234;2023-09-19T00:43:27;100124.13;;;19.41;100.00
21357;BME280;10836;53.068;18.234;2023-09-19T00:45:56;100124.94;;;19.41;100.00
21357;BME280;10836;53.068;18.234;2023-09-19T00:48:24;100119.84;;;19.43;100.00
21357;BME280;10836;53.068;18.234;2023-09-19T00:50:59;100121.34;;;19.53;100.00
21357;BME280;10836;53.068;18.234;2023-09-19T00:53:30;100114.41;;;19.59;100.00
21357;BME280;10836;53.068;18.234;2023-09-19T00:55:57;100101.97;;;19.53;100.00
21357;BME280;10836;53.068;18.234;2023-09-19T00:58:24;100113.03;;;19.53;100.00
21357;BME280;10836;53.068;18.234;2023-09-19T01:00:52;100111.75;;;19.50;100.00
21357;BME280;10836;53.068;18.234;2023-09-19T01:03:20;100108.09;;;19.46;100.00
21357;BME280;10836;53.068;18.234;2023-09-19T01:05:47;100107.84;;;19.51;100.00
21357;BME280;10836;53.068;18.234;2023-09-19T01:08:14;100103.44;;;19.50;100.00
21357;BME280;10836;53.068;18.234;2023-09-19T01:10:48;100104.97;;;19.60;100.00
21357;BME280;10836;53.068;18.234;2023-09-19T01:13:46;100105.88;;;19.64;100.00
21357;BME280;10836;53.068;18.234;2023-09-19T01:16:31;100105.06;;;19.64;100.00
21357;BME280;10836;53.068;18.234;2023-09-19T01:24:51;100092.28;;;19.59;100.00
21357;BME280;10836;53.068;18.234;2023-09-19T01:30:14;100082.09;;;19.63;100.00
21357;BME280;10836;53.068;18.234;2023-09-19T01:32:44;100084.41;;;19.73;100.00
21357;BME280;10836;53.068;18.234;2023-09-19T01:35:13;100071.50;;;19.65;100.00
21357;BME280;10836;53.068;18.234;2023-09-19T01:37:40;100065.59;;;19.67;100.00
21357;BME280;10836;53.068;18.234;2023-09-19T01:40:15;100070.34;;;19.66;100.00
21357;BME280;10836;53.068;18.234;2023-09-19T01:42:57;100068.50;;;19.58;100.00
21357;BME280;10836;53.068;18.234;2023-09-19T01:51:03;100074.50;;;19.48;100.00
21357;BME280;10836;53.068;18.234;2023-09-19T01:56:36;100083.50;;;19.57;100.00
21357;BME280;10836;53.068;18.234;2023-09-19T01:59:10;100082.81;;;19.48;100.00
21357;BME280;10836;53.068;18.234;2023-09-19T02:01:40;100079.13;;;19.56;100.00
21357;BME280;10836;53.068;18.234;2023-09-19T02:04:11;100083.25;;;19.50;100.00
21357;BME280;10836;53.068;18.234;2023-09-19T02:06:40;100079.34;;;19.51;100.00
21357;BME280;10836;53.068;18.234;2023-09-19T02:09:08;100080.97;;;19.52;100.00
21357;BME280;10836;53.068;18.234;2023-09-19T02:11:35;100088.56;;;19.55;100.00
21357;BME280;10836;53.068;18.234;2023-09-19T02:14:03;100090.53;;;19.42;100.00
21357;BME280;10836;53.068;18.234;2023-09-19T02:16:31;100099.84;;;19.50;100.00
21357;BME280;10836;53.068;18.234;2023-09-19T02:18:58;100090.44;;;19.39;100.00
21357;BME280;10836;53.068;18.234;2023-09-19T02:21:26;100078.91;;;19.37;100.00
21357;BME280;10836;53.068;18.234;2023-09-19T02:23:56;100076.34;;;19.44;100.00
21357;BME280;10836;53.068;18.234;2023-09-19T02:26:23;100077.06;;;19.41;100.00
21357;BME280;10836;53.068;18.234;2023-09-19T02:28:50;100069.44;;;19.38;100.00
21357;BME280;10836;53.068;18.234;2023-09-19T02:31:17;100079.69;;;19.37;100.00
21357;BME280;10836;53.068;18.234;2023-09-19T02:33:45;100093.44;;;19.21;100.00
21357;BME280;10836;53.068;18.234;2023-09-19T02:36:13;100083.50;;;19.08;100.00
21357;BME280;10836;53.068;18.234;2023-09-19T02:38:44;100086.41;;;19.00;100.00
21357;BME280;10836;53.068;18.234;2023-09-19T02:41:11;100088.81;;;19.01;100.00
21357;BME280;10836;53.068;18.234;2023-09-19T02:43:39;100088.81;;;19.01;100.00
21357;BME280;10836;53.068;18.234;2023-09-19T02:46:06;100103.56;;;18.93;100.00
21357;BME280;10836;53.068;18.234;2023-09-19T02:48:33;100106.53;;;18.76;100.00
21357;BME280;10836;53.068;18.234;2023-09-19T02:51:02;100106.88;;;18.74;100.00
21357;BME280;10836;53.068;18.234;2023-09-19T02:53:32;100104.34;;;18.81;100.00
21357;BME280;10836;53.068;18.234;2023-09-19T02:55:59;100109.41;;;18.79;100.00
21357;BME280;10836;53.068;18.234;2023-09-19T02:58:26;100114.56;;;18.69;100.00
21357;BME280;10836;53.068;18.234;2023-09-19T03:00:54;100115.25;;;18.66;100.00
21357;BME280;10836;53.068;18.234;2023-09-19T03:03:23;100112.03;;;18.64;100.00
21357;BME280;10836;53.068;18.234;2023-09-19T03:05:50;100114.06;;;18.54;100.00
21357;BME280;10836;53.068;18.234;2023-09-19T03:08:21;100122.09;;;18.47;100.00
21357;BME280;10836;53.068;18.234;2023-09-19T03:10:48;100115.88;;;18.50;100.00
21357;BME280;10836;53.068;18.234;2023-09-19T03:13:16;100114.28;;;18.49;100.00
21357;BME280;10836;53.068;18.234;2023-09-19T03:15:43;100124.72;;;18.44;100.00
21357;BME280;10836;53.068;18.234;2023-09-19T03:18:21;100134.03;;;18.39;100.00
21357;BME280;10836;53.068;18.234;2023-09-19T03:20:53;100134.13;;;18.31;100.00
21357;BME280;10836;53.068;18.234;2023-09-19T03:23:22;100127.03;;;18.21;100.00
21357;BME280;10836;53.068;18.234;2023-09-19T03:25:50;100124.38;;;18.12;100.00
21357;BME280;10836;53.068;18.234;2023-09-19T03:28:17;100126.31;;;17.91;100.00
21357;BME280;10836;53.068;18.234;2023-09-19T03:30:44;100132.19;;;17.89;100.00
21357;BME280;10836;53.068;18.234;2023-09-19T03:33:12;100143.63;;;17.79;100.00
21357;BME280;10836;53.068;18.234;2023-09-19T03:35:39;100137.38;;;17.61;100.00
21357;BME280;10836;53.068;18.234;2023-09-19T03:38:07;100143.63;;;17.50;100.00
21357;BME280;10836;53.068;18.234;2023-09-19T03:40:33;100132.63;;;17.41;100.00
21357;BME280;10836;53.068;18.234;2023-09-19T03:43:01;100137.63;;;17.48;100.00
21357;BME280;10836;53.068;18.234;2023-09-19T03:45:29;100140.28;;;17.36;100.00
21357;BME280;10836;53.068;18.234;2023-09-19T03:47:56;100135.03;;;17.43;100.00
21357;BME280;10836;53.068;18.234;2023-09-19T03:50:24;100134.81;;;17.56;100.00
21357;BME280;10836;53.068;18.234;2023-09-19T03:52:56;100131.72;;;17.58;100.00
21357;BME280;10836;53.068;18.234;2023-09-19T03:55:23;100136.00;;;17.47;100.00
21357;BME280;10836;53.068;18.234;2023-09-19T03:57:51;100128.19;;;17.49;100.00
21357;BME280;10836;53.068;18.234;2023-09-19T04:00:18;100132.63;;;17.41;100.00
21357;BME280;10836;53.068;18.234;2023-09-19T04:02:48;100135.84;;;17.43;100.00
21357;BME280;10836;53.068;18.234;2023-09-19T04:05:16;100144.44;;;17.50;100.00
21357;BME280;10836;53.068;18.234;2023-09-19T04:07:43;100146.91;;;17.43;100.00
21357;BME280;10836;53.068;18.234;2023-09-19T04:10:28;100139.63;;;17.39;100.00
21357;BME280;10836;53.068;18.234;2023-09-19T04:12:56;100151.31;;;17.36;100.00
21357;BME280;10836;53.068;18.234;2023-09-19T04:15:24;100137.50;;;17.36;100.00
21357;BME280;10836;53.068;18.234;2023-09-19T04:17:54;100135.91;;;17.35;100.00
21357;BME280;10836;53.068;18.234;2023-09-19T04:20:21;100134.84;;;17.18;100.00
21357;BME280;10836;53.068;18.234;2023-09-19T04:22:52;100128.69;;;17.21;100.00
21357;BME280;10836;53.068;18.234;2023-09-19T04:25:19;100133.91;;;17.14;100.00
21357;BME280;10836;53.068;18.234;2023-09-19T04:27:46;100129.81;;;17.20;100.00
21357;BME280;10836;53.068;18.234;2023-09-19T04:30:14;100130.59;;;17.29;100.00
21357;BME280;10836;53.068;18.234;2023-09-19T04:32:41;100125.88;;;17.30;100.00
21357;BME280;10836;53.068;18.234;2023-09-19T04:35:10;100128.44;;;17.35;100.00
21357;BME280;10836;53.068;18.234;2023-09-19T04:37:38;100121.44;;;17.38;100.00
21357;BME280;10836;53.068;18.234;2023-09-19T04:40:07;100133.56;;;17.45;100.00
21357;BME280;10836;53.068;18.234;2023-09-19T04:42:40;100132.47;;;17.38;100.00
21357;BME280;10836;53.068;18.234;2023-09-19T04:45:08;100121.19;;;17.31;100.00
21357;BME280;10836;53.068;18.234;2023-09-19T04:47:38;100119.66;;;17.33;100.00
21357;BME280;10836;53.068;18.234;2023-09-19T04:50:07;100128.34;;;17.23;100.00
21357;BME280;10836;53.068;18.234;2023-09-19T04:53:00;100141.03;;;17.15;100.00
21357;BME280;10836;53.068;18.234;2023-09-19T04:55:27;100139.72;;;17.21;100.00
21357;BME280;10836;53.068;18.234;2023-09-19T04:57:54;100143.91;;;17.27;100.00
21357;BME280;10836;53.068;18.234;2023-09-19T05:00:22;100133.25;;;17.17;100.00
21357;BME280;10836;53.068;18.234;2023-09-19T05:02:57;100132.41;;;17.25;100.00
21357;BME280;10836;53.068;18.234;2023-09-19T05:05:25;100131.91;;;17.23;100.00
21357;BME280;10836;53.068;18.234;2023-09-19T05:07:53;100125.72;;;17.26;100.00
21357;BME280;10836;53.068;18.234;2023-09-19T05:10:23;100122.50;;;17.24;100.00
21357;BME280;10836;53.068;18.234;2023-09-19T05:12:52;100124.41;;;17.33;100.00
21357;BME280;10836;53.068;18.234;2023-09-19T05:15:20;100113.94;;;17.17;100.00
21357;BME280;10836;53.068;18.234;2023-09-19T05:17:49;100124.47;;;17.15;100.00
21357;BME280;10836;53.068;18.234;2023-09-19T05:20:21;100121.03;;;17.27;100.00
21357;BME280;10836;53.068;18.234;2023-09-19T05:23:04;100118.44;;;17.22;100.00
21357;BME280;10836;53.068;18.234;2023-09-19T05:25:36;100127.34;;;17.27;100.00
21357;BME280;10836;53.068;18.234;2023-09-19T05:28:09;100131.91;;;17.23;100.00
21357;BME280;10836;53.068;18.234;2023-09-19T05:30:37;100127.72;;;17.17;100.00
21357;BME280;10836;53.068;18.234;2023-09-19T05:33:05;100136.97;;;17.21;100.00
21357;BME280;10836;53.068;18.234;2023-09-19T05:35:32;100137.50;;;17.06;100.00
21357;BME280;10836;53.068;18.234;2023-09-19T05:38:00;100131.63;;;17.16;100.00
21357;BME280;10836;53.068;18.234;2023-09-19T05:40:27;100133.72;;;17.19;100.00
21357;BME280;10836;53.068;18.234;2023-09-19T05:42:54;100137.03;;;17.34;100.00
21357;BME280;10836;53.068;18.234;2023-09-19T05:45:21;100132.69;;;17.33;100.00
21357;BME280;10836;53.068;18.234;2023-09-19T05:47:52;100136.53;;;17.40;100.00
21357;BME280;10836;53.068;18.234;2023-09-19T05:50:22;100138.94;;;17.42;100.00
21357;BME280;10836;53.068;18.234;2023-09-19T05:52:52;100147.22;;;17.42;100.00
21357;BME280;10836;53.068;18.234;2023-09-19T05:55:19;100155.50;;;17.42;100.00
21357;BME280;10836;53.068;18.234;2023-09-19T05:57:52;100147.72;;;17.44;100.00
21357;BME280;10836;53.068;18.234;2023-09-19T06:00:20;100148.53;;;17.44;100.00
21357;BME280;10836;53.068;18.234;2023-09-19T06:02:53;100148.94;;;17.55;100.00
21357;BME280;10836;53.068;18.234;2023-09-19T06:05:21;100145.72;;;17.53;100.00
21357;BME280;10836;53.068;18.234;2023-09-19T06:07:48;100147.03;;;17.47;100.00
21357;BME280;10836;53.068;18.234;2023-09-19T06:10:17;100139.75;;;17.42;100.00
21357;BME280;10836;53.068;18.234;2023-09-19T06:12:44;100138.44;;;17.48;100.00
21357;BME280;10836;53.068;18.234;2023-09-19T06:15:13;100134.53;;;17.49;100.00
21357;BME280;10836;53.068;18.234;2023-09-19T06:17:46;100142.03;;;17.40;100.00
21357;BME280;10836;53.068;18.234;2023-09-19T06:20:13;100149.25;;;17.62;100.00
21357;BME280;10836;53.068;18.234;2023-09-19T06:22:45;100142.25;;;17.65;100.00
21357;BME280;10836;53.068;18.234;2023-09-19T06:25:13;100144.53;;;17.62;100.00
21357;BME280;10836;53.068;18.234;2023-09-19T06:27:56;100164.19;;;17.61;100.00
21357;BME280;10836;53.068;18.234;2023-09-19T06:30:24;100160.06;;;17.38;100.00
21357;BME280;10836;53.068;18.234;2023-09-19T06:32:56;100162.03;;;17.37;100.00
21357;BME280;10836;53.068;18.234;2023-09-19T06:35:24;100168.97;;;17.43;100.00
21357;BME280;10836;53.068;18.234;2023-09-19T06:37:53;100171.97;;;17.29;100.00
21357;BME280;10836;53.068;18.234;2023-09-19T06:40:20;100182.72;;;17.22;100.00
21357;BME280;10836;53.068;18.234;2023-09-19T06:42:50;100182.81;;;17.35;100.00
21357;BME280;10836;53.068;18.234;2023-09-19T06:45:18;100178.25;;;17.39;100.00
21357;BME280;10836;53.068;18.234;2023-09-19T06:47:46;100193.19;;;17.38;100.00
21357;BME280;10836;53.068;18.234;2023-09-19T06:50:18;100189.03;;;17.32;100.00
21357;BME280;10836;53.068;18.234;2023-09-19T06:52:46;100195.19;;;17.28;100.00
21357;BME280;10836;53.068;18.234;2023-09-19T06:55:17;100193.72;;;17.31;100.00
21357;BME280;10836;53.068;18.234;2023-09-19T06:57:46;100197.19;;;17.19;100.00
21357;BME280;10836;53.068;18.234;2023-09-19T07:00:14;100202.69;;;17.19;100.00
21357;BME280;10836;53.068;18.234;2023-09-19T07:03:10;100200.38;;;17.30;100.00
21357;BME280;10836;53.068;18.234;2023-09-19T07:05:40;100201.94;;;17.40;100.00
21357;BME280;10836;53.068;18.234;2023-09-19T07:08:08;100199.84;;;17.37;100.00
21357;BME280;10836;53.068;18.234;2023-09-19T07:10:41;100218.50;;;17.40;100.00
21357;BME280;10836;53.068;18.234;2023-09-19T07:13:09;100215.28;;;17.38;100.00
21357;BME280;10836;53.068;18.234;2023-09-19T07:15:39;100213.00;;;17.40;100.00
21357;BME280;10836;53.068;18.234;2023-09-19T07:18:08;100211.38;;;17.39;100.00
21357;BME280;10836;53.068;18.234;2023-09-19T07:20:38;100212.63;;;17.50;100.00
21357;BME280;10836;53.068;18.234;2023-09-19T07:23:05;100217.00;;;17.51;100.00
21357;BME280;10836;53.068;18.234;2023-09-19T07:25:33;100220.69;;;17.72;100.00
21357;BME280;10836;53.068;18.234;2023-09-19T07:28:02;100213.69;;;17.75;100.00
21357;BME280;10836;53.068;18.234;2023-09-19T07:30:29;100215.41;;;17.79;100.00
21357;BME280;10836;53.068;18.234;2023-09-19T07:32:57;100211.78;;;17.67;100.00
21357;BME280;10836;53.068;18.234;2023-09-19T07:35:24;100214.28;;;17.80;100.00
21357;BME280;10836;53.068;18.234;2023-09-19T07:37:52;100212.75;;;17.91;100.00
21357;BME280;10836;53.068;18.234;2023-09-19T07:40:19;100212.13;;;18.15;100.00
21357;BME280;10836;53.068;18.234;2023-09-19T07:42:48;100224.25;;;18.23;100.00
21357;BME280;10836;53.068;18.234;2023-09-19T07:45:15;100227.63;;;18.28;100.00
21357;BME280;10836;53.068;18.234;2023-09-19T07:47:47;100228.69;;;18.36;100.00
21357;BME280;10836;53.068;18.234;2023-09-19T07:50:16;100219.81;;;18.51;100.00
21357;BME280;10836;53.068;18.234;2023-09-19T07:52:47;100230.47;;;18.41;100.00
21357;BME280;10836;53.068;18.234;2023-09-19T07:55:14;100212.66;;;18.50;100.00
21357;BME280;10836;53.068;18.234;2023-09-19T07:57:47;100221.81;;;18.42;100.00
21357;BME280;10836;53.068;18.234;2023-09-19T08:00:14;100221.63;;;18.47;100.00
21357;BME280;10836;53.068;18.234;2023-09-19T08:02:43;100232.56;;;18.65;100.00
21357;BME280;10836;53.068;18.234;2023-09-19T08:05:12;100239.75;;;18.36;100.00
21357;BME280;10836;53.068;18.234;2023-09-19T08:07:44;100239.00;;;18.27;100.00
21357;BME280;10836;53.068;18.234;2023-09-19T08:10:12;100250.09;;;18.48;100.00
21357;BME280;10836;53.068;18.234;2023-09-19T08:12:43;100255.19;;;18.37;100.00
21357;BME280;10836;53.068;18.234;2023-09-19T08:15:20;100251.88;;;18.23;100.00
21357;BME280;10836;53.068;18.234;2023-09-19T08:17:48;100255.38;;;18.11;100.00
21357;BME280;10836;53.068;18.234;2023-09-19T08:20:15;100255.34;;;17.90;100.00
21357;BME280;10836;53.068;18.234;2023-09-19T08:22:51;100261.34;;;17.92;100.00
21357;BME280;10836;53.068;18.234;2023-09-19T08:25:22;100264.38;;;18.00;100.00
21357;BME280;10836;53.068;18.234;2023-09-19T08:27:50;100261.53;;;17.87;100.00
21357;BME280;10836;53.068;18.234;2023-09-19T08:30:21;100265.13;;;17.79;100.00
21357;BME280;10836;53.068;18.234;2023-09-19T08:33:01;100266.09;;;17.83;100.00
21357;BME280;10836;53.068;18.234;2023-09-19T08:35:31;100270.94;;;17.86;100.00
21357;BME280;10836;53.068;18.234;2023-09-19T08:37:58;100268.69;;;18.18;100.00
21357;BME280;10836;53.068;18.234;2023-09-19T08:40:30;100269.06;;;18.08;100.00
21357;BME280;10836;53.068;18.234;2023-09-19T08:43:00;100282.50;;;18.18;100.00
21357;BME280;10836;53.068;18.234;2023-09-19T08:45:27;100281.47;;;18.22;100.00
21357;BME280;10836;53.068;18.234;2023-09-19T08:48:23;100282.09;;;18.28;100.00
21357;BME280;10836;53.068;18.234;2023-09-19T08:50:56;100285.59;;;18.37;100.00
21357;BME280;10836;53.068;18.234;2023-09-19T08:53:41;100285.50;;;18.75;100.00
21357;BME280;10836;53.068;18.234;2023-09-19T08:56:10;100298.59;;;18.87;100.00
21357;BME280;10836;53.068;18.234;2023-09-19T08:59:04;100303.03;;;19.00;100.00
21357;BME280;10836;53.068;18.234;2023-09-19T09:01:31;100298.88;;;19.06;100.00
21357;BME280;10836;53.068;18.234;2023-09-19T09:04:01;100291.34;;;19.27;100.00
21357;BME280;10836;53.068;18.234;2023-09-19T09:06:29;100292.84;;;19.70;100.00
21357;BME280;10836;53.068;18.234;2023-09-19T09:08:57;100296.66;;;20.14;100.00
21357;BME280;10836;53.068;18.234;2023-09-19T09:11:24;100296.88;;;20.46;100.00
21357;BME280;10836;53.068;18.234;2023-09-19T09:13:52;100290.19;;;20.35;100.00
21357;BME280;10836;53.068;18.234;2023-09-19T09:16:19;100302.31;;;20.18;100.00
21357;BME280;10836;53.068;18.234;2023-09-19T09:18:47;100293.28;;;20.57;100.00
21357;BME280;10836;53.068;18.234;2023-09-19T09:21:21;100302.00;;;21.40;100.00
21357;BME280;10836;53.068;18.234;2023-09-19T09:23:49;100300.94;;;21.91;100.00
21357;BME280;10836;53.068;18.234;2023-09-19T09:26:41;100302.38;;;21.54;100.00
21357;BME280;10836;53.068;18.234;2023-09-19T09:29:09;100302.00;;;21.40;100.00
21357;BME280;10836;53.068;18.234;2023-09-19T09:31:36;100308.56;;;21.19;100.00
21357;BME280;10836;53.068;18.234;2023-09-19T09:34:05;100296.75;;;20.95;100.00
21357;BME280;10836;53.068;18.234;2023-09-19T09:36:36;100307.88;;;20.42;100.00
21357;BME280;10836;53.068;18.234;2023-09-19T09:39:04;100308.34;;;20.32;100.00
21357;BME280;10836;53.068;18.234;2023-09-19T09:41:51;100313.41;;;19.93;100.00
21357;BME280;10836;53.068;18.234;2023-09-19T09:44:18;100316.56;;;19.92;100.00
21357;BME280;10836;53.068;18.234;2023-09-19T09:46:47;100315.94;;;19.99;100.00
21357;BME280;10836;53.068;18.234;2023-09-19T09:49:26;100312.97;;;19.91;100.00
21357;BME280;10836;53.068;18.234;2023-09-19T09:52:06;100309.94;;;20.33;100.00
21357;BME280;10836;53.068;18.234;2023-09-19T09:54:38;100308.53;;;20.51;100.00
21357;BME280;10836;53.068;18.234;2023-09-19T09:57:09;100307.47;;;20.68;100.00
21357;BME280;10836;53.068;18.234;2023-09-19T10:02:15;100318.72;;;20.59;100.00
21357;BME280;10836;53.068;18.234;2023-09-19T10:04:51;100321.25;;;20.65;100.00
21357;BME280;10836;53.068;18.234;2023-09-19T10:09:54;100312.00;;;20.48;100.00
21357;BME280;10836;53.068;18.234;2023-09-19T10:12:32;100317.81;;;20.43;100.00
21357;BME280;10836;53.068;18.234;2023-09-19T10:15:02;100318.16;;;20.42;100.00
21357;BME280;10836;53.068;18.234;2023-09-19T10:17:33;100326.59;;;20.33;100.00
21357;BME280;10836;53.068;18.234;2023-09-19T10:20:02;100322.41;;;20.64;100.00
21357;BME280;10836;53.068;18.234;2023-09-19T10:22:40;100333.63;;;20.95;100.00
21357;BME280;10836;53.068;18.234;2023-09-19T10:25:09;100334.22;;;20.88;100.00
21357;BME280;10836;53.068;18.234;2023-09-19T10:27:36;100337.88;;;21.05;100.00
21357;BME280;10836;53.068;18.234;2023-09-19T10:30:06;100340.41;;;21.22;100.00
21357;BME280;10836;53.068;18.234;2023-09-19T10:32:35;100342.38;;;21.21;100.00
21357;BME280;10836;53.068;18.234;2023-09-19T10:35:06;100359.97;;;21.41;100.00
21357;BME280;10836;53.068;18.234;2023-09-19T10:37:35;100352.88;;;21.16;97.63
21357;BME280;10836;53.068;18.234;2023-09-19T10:40:06;100355.19;;;21.14;94.89
21357;BME280;10836;53.068;18.234;2023-09-19T10:42:37;100363.41;;;21.22;91.86
21357;BME280;10836;53.068;18.234;2023-09-19T10:45:06;100362.31;;;20.99;90.03
21357;BME280;10836;53.068;18.234;2023-09-19T10:47:39;100362.97;;;21.08;90.88
21357;BME280;10836;53.068;18.234;2023-09-19T10:50:07;100367.53;;;21.29;88.50
21357;BME280;10836;53.068;18.234;2023-09-19T10:52:40;100363.41;;;21.50;89.66
21357;BME280;10836;53.068;18.234;2023-09-19T10:55:16;100353.69;;;21.44;87.42
21357;BME280;10836;53.068;18.234;2023-09-19T10:57:45;100354.50;;;21.45;86.68
21357;BME280;10836;53.068;18.234;2023-09-19T11:00:14;100345.91;;;21.50;87.58
21357;BME280;10836;53.068;18.234;2023-09-19T11:05:41;100348.66;;;21.94;83.92
21357;BME280;10836;53.068;18.234;2023-09-19T11:08:08;100346.69;;;22.10;78.33
21357;BME280;10836;53.068;18.234;2023-09-19T11:10:47;100343.28;;;22.16;78.07
21357;BME280;10836;53.068;18.234;2023-09-19T11:13:26;100344.97;;;22.37;77.30
21357;BME280;10836;53.068;18.234;2023-09-19T11:21:38;100328.81;;;24.49;66.67
21357;BME280;10836;53.068;18.234;2023-09-19T11:27:12;100331.78;;;26.01;58.87
21357;BME280;10836;53.068;18.234;2023-09-19T11:29:44;100354.31;;;25.75;56.94
21357;BME280;10836;53.068;18.234;2023-09-19T11:32:11;100347.84;;;26.11;52.00
21357;BME280;10836;53.068;18.234;2023-09-19T11:34:40;100345.09;;;26.15;48.62
21357;BME280;10836;53.068;18.234;2023-09-19T11:40:11;100355.81;;;27.26;44.39
21357;BME280;10836;53.068;18.234;2023-09-19T11:42:48;100351.50;;;26.70;45.63
21357;BME280;10836;53.068;18.234;2023-09-19T11:48:08;100358.31;;;28.77;40.42
21357;BME280;10836;53.068;18.234;2023-09-19T11:50:35;100352.66;;;27.49;43.19
21357;BME280;10836;53.068;18.234;2023-09-19T11:53:03;100354.88;;;26.97;44.31
21357;BME280;10836;53.068;18.234;2023-09-19T11:55:31;100367.19;;;27.94;44.99
21357;BME280;10836;53.068;18.234;2023-09-19T11:58:00;100373.59;;;28.19;42.15
21357;BME280;10836;53.068;18.234;2023-09-19T12:00:27;100382.47;;;28.42;40.86
21357;BME280;10836;53.068;18.234;2023-09-19T12:03:02;100383.19;;;27.61;43.26
21357;BME280;10836;53.068;18.234;2023-09-19T12:05:33;100390.84;;;25.89;45.42
21357;BME280;10836;53.068;18.234;2023-09-19T12:08:01;100378.94;;;24.69;48.58
21357;BME280;10836;53.068;18.234;2023-09-19T12:10:31;100391.06;;;24.53;51.10
21357;BME280;10836;53.068;18.234;2023-09-19T12:12:59;100386.03;;;23.52;54.83
21357;BME280;10836;53.068;18.234;2023-09-19T12:15:27;100400.31;;;24.12;53.56
21357;BME280;10836;53.068;18.234;2023-09-19T12:18:00;100386.75;;;23.87;54.52
21357;BME280;10836;53.068;18.234;2023-09-19T12:20:43;100395.50;;;24.09;52.32
21357;BME280;10836;53.068;18.234;2023-09-19T12:23:16;100397.44;;;25.37;49.84
21357;BME280;10836;53.068;18.234;2023-09-19T12:25:44;100398.19;;;25.67;48.21
21357;BME280;10836;53.068;18.234;2023-09-19T12:28:14;100393.91;;;25.77;47.89
21357;BME280;10836;53.068;18.234;2023-09-19T12:30:43;100387.63;;;25.20;49.96
21357;BME280;10836;53.068;18.234;2023-09-19T12:33:18;100384.34;;;24.84;50.00
21357;BME280;10836;53.068;18.234;2023-09-19T12:35:53;100400.44;;;23.73;51.40
21357;BME280;10836;53.068;18.234;2023-09-19T12:38:27;100399.69;;;23.18;52.73
21357;BME280;10836;53.068;18.234;2023-09-19T12:41:02;100402.25;;;23.08;54.14
21357;BME280;10836;53.068;18.234;2023-09-19T12:43:31;100406.59;;;23.82;52.94
21357;BME280;10836;53.068;18.234;2023-09-19T12:46:03;100402.94;;;25.00;46.43
21357;BME280;10836;53.068;18.234;2023-09-19T12:48:31;100400.13;;;26.44;41.41
21357;BME280;10836;53.068;18.234;2023-09-19T12:53:45;100399.41;;;26.55;39.80
21357;BME280;10836;53.068;18.234;2023-09-19T12:56:15;100407.75;;;25.33;44.06
21357;BME280;10836;53.068;18.234;2023-09-19T12:58:53;100417.56;;;24.40;45.47
21357;BME280;10836;53.068;18.234;2023-09-19T13:01:25;100418.69;;;23.32;49.82
21357;BME280;10836;53.068;18.234;2023-09-19T13:06:52;100413.16;;;22.97;53.36
21357;BME280;10836;53.068;18.234;2023-09-19T13:09:21;100411.78;;;24.07;50.27
21357;BME280;10836;53.068;18.234;2023-09-19T13:11:49;100420.50;;;25.00;46.11
21357;BME280;10836;53.068;18.234;2023-09-19T13:14:22;100414.03;;;25.90;43.88
21357;BME280;10836;53.068;18.234;2023-09-19T13:17:06;100406.63;;;26.56;33.24
21357;BME280;10836;53.068;18.234;2023-09-19T13:19:51;100420.88;;;25.62;36.37
21357;BME280;10836;53.068;18.234;2023-09-19T13:22:42;100421.88;;;25.77;35.03
21357;BME280;10836;53.068;18.234;2023-09-19T13:25:18;100419.44;;;25.08;38.05
21357;BME280;10836;53.068;18.234;2023-09-19T13:27:50;100428.34;;;25.84;37.50
21357;BME280;10836;53.068;18.234;2023-09-19T13:30:25;100425.53;;;26.25;35.69
21357;BME280;10836;53.068;18.234;2023-09-19T13:33:04;100431.47;;;25.46;37.78
21357;BME280;10836;53.068;18.234;2023-09-19T13:35:33;100436.25;;;25.15;38.92